AEE6IM LGAV-LIMC
Flight info
| Callsign | AEE6IM |
|---|---|
| Flight time | 2h 20m |
| Altitude | 34000 |
| Route | KOR UL53 KRK DCT TIGRA DCT BAR DCT URIPI DCT TUFTE DCT LOMED DCT BEROK DCT MIVKI DCT GOLAS T648 MEBUR |
| Aircraft | A320/M-SDE3FGHIRWY/LB1 |
Departure
| Time | 2026-05-05 04:47 |
|---|---|
| Airport | Athens Eleftherios Venizelos International Airport (LGAV) |
Arrival
| Time | 2026-05-05 07:07 |
|---|---|
| Airport | Milan Malpensa International Airport (LIMC) |
| Time | Latitude | Longitude | Altitude | Speed | Heading |
|---|---|---|---|---|---|
| 2026-05-05 04:13 | 37.93115 | 23.94416 | 287 ft | 0 kts | 217° |
| 2026-05-05 04:39 | 37.93126 | 23.94428 | 287 ft | 2 kts | 218° |
| 2026-05-05 04:40 | 37.93137 | 23.94438 | 287 ft | 1 kts | 217° |
| 2026-05-05 04:40 | 37.93146 | 23.94447 | 287 ft | 2 kts | 206° |
| 2026-05-05 04:40 | 37.93160 | 23.94452 | 287 ft | 2 kts | 186° |
| 2026-05-05 04:40 | 37.93175 | 23.94451 | 287 ft | 2 kts | 166° |
| 2026-05-05 04:41 | 37.93189 | 23.94445 | 287 ft | 2 kts | 148° |
| 2026-05-05 04:41 | 37.93200 | 23.94434 | 287 ft | 0 kts | 130° |
| 2026-05-05 04:41 | 37.93203 | 23.94427 | 287 ft | 1 kts | 126° |
| 2026-05-05 04:41 | 37.93204 | 23.94426 | 287 ft | 0 kts | 127° |
| 2026-05-05 04:43 | 37.93203 | 23.94428 | 287 ft | 0 kts | 127° |
| 2026-05-05 04:43 | 37.93179 | 23.94468 | 287 ft | 10 kts | 127° |
| 2026-05-05 04:43 | 37.93131 | 23.94549 | 287 ft | 11 kts | 127° |
| 2026-05-05 04:44 | 37.93081 | 23.94634 | 287 ft | 12 kts | 126° |
| 2026-05-05 04:44 | 37.93010 | 23.94670 | 287 ft | 12 kts | 209° |
| 2026-05-05 04:44 | 37.92930 | 23.94596 | 287 ft | 16 kts | 217° |
| 2026-05-05 04:44 | 37.92836 | 23.94507 | 287 ft | 16 kts | 217° |
| 2026-05-05 04:45 | 37.92742 | 23.94419 | 287 ft | 16 kts | 217° |
| 2026-05-05 04:45 | 37.92649 | 23.94329 | 287 ft | 16 kts | 217° |
| 2026-05-05 04:45 | 37.92561 | 23.94299 | 287 ft | 13 kts | 144° |
| 2026-05-05 04:45 | 37.92501 | 23.94397 | 287 ft | 14 kts | 117° |
| 2026-05-05 04:46 | 37.92539 | 23.94503 | 287 ft | 18 kts | 37° |
| 2026-05-05 04:46 | 37.92746 | 23.94698 | 287 ft | 66 kts | 37° |
| 2026-05-05 04:46 | 37.93282 | 23.95207 | 287 ft | 124 kts | 37° |
| 2026-05-05 04:46 | 37.94113 | 23.95995 | 343 ft | 166 kts | 36° |
| 2026-05-05 04:47 | 37.95012 | 23.96849 | 948 ft | 159 kts | 37° |
| 2026-05-05 04:47 | 37.95899 | 23.97707 | 1444 ft | 163 kts | 37° |
| 2026-05-05 04:47 | 37.96791 | 23.98573 | 1980 ft | 164 kts | 37° |
| 2026-05-05 04:47 | 37.97701 | 23.99455 | 2430 ft | 165 kts | 37° |
| 2026-05-05 04:48 | 37.98608 | 24.00330 | 2859 ft | 167 kts | 37° |
| 2026-05-05 04:48 | 37.99549 | 24.01235 | 3318 ft | 169 kts | 36° |
| 2026-05-05 04:48 | 38.00496 | 24.02146 | 3679 ft | 177 kts | 36° |
| 2026-05-05 04:48 | 38.01523 | 24.03132 | 3974 ft | 192 kts | 36° |
| 2026-05-05 04:49 | 38.02628 | 24.04194 | 4280 ft | 208 kts | 36° |
| 2026-05-05 04:49 | 38.03826 | 24.05345 | 4508 ft | 230 kts | 36° |
| 2026-05-05 04:49 | 38.05257 | 24.06378 | 4850 ft | 247 kts | 12° |
| 2026-05-05 04:49 | 38.07021 | 24.06240 | 5221 ft | 263 kts | 335° |
| 2026-05-05 04:50 | 38.08410 | 24.04770 | 5845 ft | 269 kts | 302° |
| 2026-05-05 04:50 | 38.09126 | 24.02627 | 6647 ft | 269 kts | 287° |
| 2026-05-05 04:50 | 38.09676 | 24.00345 | 7389 ft | 272 kts | 288° |
| 2026-05-05 04:50 | 38.10290 | 23.98139 | 8101 ft | 276 kts | 291° |
| 2026-05-05 04:51 | 38.11003 | 23.95918 | 8825 ft | 278 kts | 293° |
| 2026-05-05 04:51 | 38.11777 | 23.93689 | 9523 ft | 281 kts | 294° |
| 2026-05-05 04:51 | 38.12589 | 23.91433 | 10199 ft | 283 kts | 294° |
| 2026-05-05 04:51 | 38.13426 | 23.89133 | 10688 ft | 293 kts | 294° |
| 2026-05-05 04:52 | 38.14294 | 23.86751 | 10969 ft | 309 kts | 294° |
| 2026-05-05 04:52 | 38.15216 | 23.84223 | 11248 ft | 324 kts | 294° |
| 2026-05-05 04:52 | 38.16191 | 23.81546 | 11629 ft | 335 kts | 294° |
| 2026-05-05 04:52 | 38.17169 | 23.78861 | 12229 ft | 337 kts | 294° |
| 2026-05-05 04:53 | 38.18147 | 23.76176 | 12832 ft | 339 kts | 294° |
| 2026-05-05 04:53 | 38.19142 | 23.73440 | 13408 ft | 342 kts | 294° |
| 2026-05-05 04:53 | 38.20132 | 23.70715 | 13964 ft | 344 kts | 294° |
| 2026-05-05 04:53 | 38.21149 | 23.67914 | 14518 ft | 347 kts | 294° |
| 2026-05-05 04:54 | 38.22148 | 23.65163 | 15047 ft | 349 kts | 294° |
| 2026-05-05 04:54 | 38.23175 | 23.62330 | 15575 ft | 352 kts | 294° |
| 2026-05-05 04:54 | 38.24199 | 23.59502 | 16086 ft | 354 kts | 294° |
| 2026-05-05 04:54 | 38.25231 | 23.56651 | 16586 ft | 357 kts | 294° |
| 2026-05-05 04:55 | 38.26261 | 23.53802 | 17072 ft | 359 kts | 294° |
| 2026-05-05 04:55 | 38.27309 | 23.50902 | 17551 ft | 361 kts | 294° |
| 2026-05-05 04:55 | 38.28355 | 23.48003 | 18018 ft | 364 kts | 294° |
| 2026-05-05 04:55 | 38.29420 | 23.45049 | 18483 ft | 366 kts | 294° |
| 2026-05-05 04:56 | 38.30476 | 23.42117 | 18931 ft | 368 kts | 294° |
| 2026-05-05 04:56 | 38.31534 | 23.39178 | 19369 ft | 370 kts | 293° |
| 2026-05-05 04:56 | 38.32615 | 23.36171 | 19804 ft | 373 kts | 293° |
| 2026-05-05 04:56 | 38.33696 | 23.33163 | 20232 ft | 375 kts | 293° |
| 2026-05-05 04:57 | 38.34769 | 23.30174 | 20648 ft | 377 kts | 292° |
| 2026-05-05 04:57 | 38.35866 | 23.27113 | 21059 ft | 379 kts | 292° |
| 2026-05-05 04:57 | 38.36961 | 23.24055 | 21457 ft | 382 kts | 292° |
| 2026-05-05 04:57 | 38.38067 | 23.20960 | 21853 ft | 384 kts | 292° |
| 2026-05-05 04:58 | 38.39170 | 23.17871 | 22236 ft | 386 kts | 292° |
| 2026-05-05 04:58 | 38.40279 | 23.14757 | 22611 ft | 388 kts | 292° |
| 2026-05-05 04:58 | 38.41389 | 23.11640 | 22974 ft | 390 kts | 292° |
| 2026-05-05 04:58 | 38.42516 | 23.08476 | 23336 ft | 392 kts | 292° |
| 2026-05-05 04:59 | 38.43632 | 23.05339 | 23681 ft | 394 kts | 292° |
| 2026-05-05 04:59 | 38.44773 | 23.02134 | 24025 ft | 396 kts | 292° |
| 2026-05-05 04:59 | 38.45913 | 22.98927 | 24355 ft | 398 kts | 292° |
| 2026-05-05 04:59 | 38.47048 | 22.95727 | 24674 ft | 400 kts | 292° |
| 2026-05-05 05:00 | 38.48203 | 22.92467 | 24979 ft | 403 kts | 291° |
| 2026-05-05 05:00 | 38.49347 | 22.89226 | 25272 ft | 405 kts | 291° |
| 2026-05-05 05:00 | 38.50519 | 22.85904 | 25566 ft | 408 kts | 291° |
| 2026-05-05 05:00 | 38.51675 | 22.82623 | 25847 ft | 410 kts | 291° |
| 2026-05-05 05:01 | 38.52846 | 22.79300 | 26122 ft | 413 kts | 291° |
| 2026-05-05 05:01 | 38.54031 | 22.75932 | 26401 ft | 415 kts | 291° |
| 2026-05-05 05:01 | 38.55209 | 22.72574 | 26695 ft | 416 kts | 291° |
| 2026-05-05 05:01 | 38.56392 | 22.69205 | 26991 ft | 418 kts | 291° |
| 2026-05-05 05:02 | 38.57587 | 22.65801 | 27281 ft | 419 kts | 291° |
| 2026-05-05 05:02 | 38.58765 | 22.62441 | 27551 ft | 421 kts | 291° |
| 2026-05-05 05:02 | 38.59969 | 22.59004 | 27822 ft | 423 kts | 291° |
| 2026-05-05 05:02 | 38.61157 | 22.55609 | 28096 ft | 424 kts | 291° |
| 2026-05-05 05:03 | 38.62365 | 22.52158 | 28365 ft | 425 kts | 291° |
| 2026-05-05 05:03 | 38.63565 | 22.48722 | 28617 ft | 427 kts | 291° |
| 2026-05-05 05:03 | 38.64772 | 22.45262 | 28870 ft | 428 kts | 291° |
| 2026-05-05 05:03 | 38.65995 | 22.41749 | 29118 ft | 429 kts | 291° |
| 2026-05-05 05:04 | 38.67208 | 22.38255 | 29356 ft | 431 kts | 291° |
| 2026-05-05 05:04 | 38.68415 | 22.34775 | 29591 ft | 432 kts | 290° |
| 2026-05-05 05:04 | 38.69626 | 22.31283 | 29824 ft | 433 kts | 290° |
| 2026-05-05 05:04 | 38.70853 | 22.27737 | 30074 ft | 434 kts | 290° |
| 2026-05-05 05:05 | 38.72070 | 22.24222 | 30379 ft | 433 kts | 290° |
| 2026-05-05 05:05 | 38.73287 | 22.20705 | 30703 ft | 431 kts | 290° |
| 2026-05-05 05:05 | 38.74487 | 22.17233 | 31010 ft | 430 kts | 290° |
| 2026-05-05 05:05 | 38.75696 | 22.13732 | 31301 ft | 429 kts | 290° |
| 2026-05-05 05:06 | 38.76890 | 22.10269 | 31590 ft | 428 kts | 290° |
| 2026-05-05 05:06 | 38.78088 | 22.06787 | 31875 ft | 427 kts | 290° |
| 2026-05-05 05:06 | 38.79279 | 22.03319 | 32168 ft | 426 kts | 290° |
| 2026-05-05 05:06 | 38.80479 | 21.99823 | 32438 ft | 425 kts | 290° |
| 2026-05-05 05:07 | 38.81656 | 21.96385 | 32648 ft | 426 kts | 290° |
| 2026-05-05 05:07 | 38.82852 | 21.92887 | 32834 ft | 427 kts | 290° |
| 2026-05-05 05:07 | 38.84039 | 21.89411 | 33026 ft | 427 kts | 290° |
| 2026-05-05 05:07 | 38.85238 | 21.85900 | 33221 ft | 428 kts | 290° |
| 2026-05-05 05:08 | 38.86415 | 21.82446 | 33411 ft | 428 kts | 290° |
| 2026-05-05 05:08 | 38.87604 | 21.78956 | 33602 ft | 428 kts | 290° |
| 2026-05-05 05:08 | 38.88792 | 21.75468 | 33769 ft | 429 kts | 290° |
| 2026-05-05 05:08 | 38.89998 | 21.71923 | 33933 ft | 430 kts | 290° |
| 2026-05-05 05:09 | 38.91184 | 21.68434 | 34102 ft | 430 kts | 290° |
| 2026-05-05 05:09 | 38.93563 | 21.61415 | 34139 ft | 430 kts | 290° |
| 2026-05-05 05:10 | 38.95937 | 21.54383 | 34143 ft | 431 kts | 290° |
| 2026-05-05 05:10 | 38.98320 | 21.47308 | 34145 ft | 430 kts | 290° |
| 2026-05-05 05:11 | 39.00687 | 21.40268 | 34146 ft | 431 kts | 290° |
| 2026-05-05 05:11 | 39.03052 | 21.33219 | 34148 ft | 430 kts | 289° |
| 2026-05-05 05:12 | 39.05405 | 21.26190 | 34146 ft | 429 kts | 289° |
| 2026-05-05 05:12 | 39.07767 | 21.19117 | 34147 ft | 429 kts | 289° |
| 2026-05-05 05:13 | 39.10104 | 21.12106 | 34146 ft | 429 kts | 289° |
| 2026-05-05 05:13 | 39.12428 | 21.05072 | 34150 ft | 421 kts | 291° |
| 2026-05-05 05:14 | 39.14679 | 20.98223 | 34146 ft | 416 kts | 294° |
| 2026-05-05 05:14 | 39.16951 | 20.91324 | 34142 ft | 421 kts | 296° |
| 2026-05-05 05:15 | 39.19273 | 20.84318 | 34143 ft | 431 kts | 297° |
| 2026-05-05 05:15 | 39.21625 | 20.77220 | 34146 ft | 434 kts | 297° |
| 2026-05-05 05:16 | 39.23982 | 20.70058 | 34148 ft | 434 kts | 297° |
| 2026-05-05 05:16 | 39.26336 | 20.62869 | 34151 ft | 434 kts | 297° |
| 2026-05-05 05:17 | 39.28678 | 20.55701 | 34154 ft | 434 kts | 297° |
| 2026-05-05 05:17 | 39.31012 | 20.48534 | 34158 ft | 434 kts | 297° |
| 2026-05-05 05:18 | 39.33353 | 20.41334 | 34162 ft | 434 kts | 297° |
| 2026-05-05 05:18 | 39.35672 | 20.34208 | 34164 ft | 434 kts | 297° |
| 2026-05-05 05:19 | 39.38007 | 20.27014 | 34162 ft | 435 kts | 297° |
| 2026-05-05 05:19 | 39.40334 | 20.19830 | 34152 ft | 435 kts | 297° |
| 2026-05-05 05:20 | 39.42716 | 20.12640 | 34139 ft | 433 kts | 299° |
| 2026-05-05 05:20 | 39.45520 | 20.05864 | 34129 ft | 430 kts | 305° |
| 2026-05-05 05:21 | 39.48864 | 19.99501 | 34124 ft | 428 kts | 310° |
| 2026-05-05 05:21 | 39.52416 | 19.93371 | 34120 ft | 427 kts | 311° |
| 2026-05-05 05:22 | 39.55970 | 19.87244 | 34121 ft | 427 kts | 310° |
| 2026-05-05 05:22 | 39.59328 | 19.81432 | 34120 ft | 427 kts | 310° |
| 2026-05-05 05:23 | 39.62523 | 19.75886 | 34120 ft | 428 kts | 310° |
| 2026-05-05 05:23 | 39.66298 | 19.69322 | 34119 ft | 427 kts | 310° |
| 2026-05-05 05:24 | 39.70024 | 19.62825 | 34120 ft | 427 kts | 310° |
| 2026-05-05 05:24 | 39.73552 | 19.56665 | 34119 ft | 427 kts | 310° |
| 2026-05-05 05:25 | 39.77102 | 19.50452 | 34120 ft | 427 kts | 310° |
| 2026-05-05 05:25 | 39.80614 | 19.44294 | 34120 ft | 427 kts | 310° |
| 2026-05-05 05:26 | 39.84138 | 19.38102 | 34119 ft | 427 kts | 310° |
| 2026-05-05 05:26 | 39.87682 | 19.31863 | 34120 ft | 428 kts | 310° |
| 2026-05-05 05:27 | 39.91187 | 19.25680 | 34120 ft | 428 kts | 310° |
| 2026-05-05 05:27 | 39.96481 | 19.16315 | 34122 ft | 426 kts | 310° |
| 2026-05-05 05:28 | 39.99949 | 19.10149 | 34120 ft | 419 kts | 311° |
| 2026-05-05 05:28 | 40.03323 | 19.04153 | 34117 ft | 412 kts | 313° |
| 2026-05-05 05:29 | 40.06587 | 18.98157 | 34112 ft | 407 kts | 311° |
| 2026-05-05 05:29 | 40.09683 | 18.92041 | 34102 ft | 401 kts | 312° |
| 2026-05-05 05:30 | 40.12758 | 18.85963 | 34098 ft | 401 kts | 312° |
| 2026-05-05 05:30 | 40.15827 | 18.79882 | 34096 ft | 401 kts | 312° |
| 2026-05-05 05:31 | 40.18868 | 18.73838 | 34094 ft | 401 kts | 312° |
| 2026-05-05 05:31 | 40.21931 | 18.67739 | 34094 ft | 401 kts | 312° |
| 2026-05-05 05:32 | 40.24981 | 18.61655 | 34094 ft | 401 kts | 312° |
| 2026-05-05 05:32 | 40.28045 | 18.55528 | 34094 ft | 402 kts | 312° |
| 2026-05-05 05:33 | 40.31076 | 18.49455 | 34092 ft | 401 kts | 312° |
| 2026-05-05 05:33 | 40.34139 | 18.43311 | 34094 ft | 401 kts | 312° |
| 2026-05-05 05:34 | 40.37159 | 18.37234 | 34093 ft | 401 kts | 312° |
| 2026-05-05 05:34 | 40.40192 | 18.31119 | 34093 ft | 402 kts | 311° |
| 2026-05-05 05:35 | 40.43236 | 18.24975 | 34093 ft | 402 kts | 311° |
| 2026-05-05 05:35 | 40.46254 | 18.18870 | 34092 ft | 402 kts | 311° |
| 2026-05-05 05:36 | 40.49291 | 18.12715 | 34093 ft | 402 kts | 311° |
| 2026-05-05 05:36 | 40.52328 | 18.06545 | 34093 ft | 402 kts | 311° |
| 2026-05-05 05:37 | 40.55357 | 18.00383 | 34100 ft | 404 kts | 311° |
| 2026-05-05 05:37 | 40.56867 | 17.97306 | 34341 ft | 402 kts | 311° |
| 2026-05-05 05:37 | 40.58381 | 17.94210 | 34695 ft | 398 kts | 311° |
| 2026-05-05 05:38 | 40.59862 | 17.91180 | 34947 ft | 396 kts | 311° |
| 2026-05-05 05:38 | 40.61362 | 17.88115 | 35115 ft | 396 kts | 311° |
| 2026-05-05 05:38 | 40.62842 | 17.85091 | 35283 ft | 396 kts | 311° |
| 2026-05-05 05:38 | 40.64317 | 17.82072 | 35459 ft | 396 kts | 311° |
| 2026-05-05 05:39 | 40.65803 | 17.79026 | 35640 ft | 395 kts | 311° |
| 2026-05-05 05:39 | 40.67295 | 17.75966 | 35813 ft | 395 kts | 311° |
| 2026-05-05 05:39 | 40.68760 | 17.72957 | 35969 ft | 394 kts | 311° |
| 2026-05-05 05:39 | 40.70249 | 17.69896 | 36082 ft | 394 kts | 311° |
| 2026-05-05 05:40 | 40.73176 | 17.63869 | 36090 ft | 394 kts | 311° |
| 2026-05-05 05:40 | 40.76133 | 17.57768 | 36092 ft | 394 kts | 311° |
| 2026-05-05 05:41 | 40.79072 | 17.51691 | 36093 ft | 394 kts | 311° |
| 2026-05-05 05:41 | 40.81990 | 17.45646 | 36092 ft | 394 kts | 311° |
| 2026-05-05 05:42 | 40.84945 | 17.39514 | 36092 ft | 394 kts | 311° |
| 2026-05-05 05:42 | 40.87873 | 17.33424 | 36090 ft | 395 kts | 311° |
| 2026-05-05 05:43 | 40.90797 | 17.27335 | 36093 ft | 395 kts | 311° |
| 2026-05-05 05:43 | 40.93733 | 17.21203 | 36092 ft | 395 kts | 311° |
| 2026-05-05 05:44 | 40.96670 | 17.15058 | 36093 ft | 395 kts | 311° |
| 2026-05-05 05:44 | 40.99597 | 17.08925 | 36091 ft | 394 kts | 311° |
| 2026-05-05 05:45 | 41.02514 | 17.02797 | 36088 ft | 394 kts | 311° |
| 2026-05-05 05:45 | 41.05406 | 16.96700 | 36086 ft | 390 kts | 311° |
| 2026-05-05 05:46 | 41.08261 | 16.90676 | 36079 ft | 385 kts | 311° |
| 2026-05-05 05:46 | 41.11081 | 16.84720 | 36078 ft | 380 kts | 312° |
| 2026-05-05 05:47 | 41.13871 | 16.78816 | 36071 ft | 374 kts | 312° |
| 2026-05-05 05:47 | 41.16604 | 16.73019 | 36063 ft | 373 kts | 312° |
| 2026-05-05 05:48 | 41.19364 | 16.67158 | 36065 ft | 373 kts | 312° |
| 2026-05-05 05:48 | 41.22107 | 16.61317 | 36065 ft | 373 kts | 312° |
| 2026-05-05 05:49 | 41.24828 | 16.55513 | 36063 ft | 374 kts | 312° |
| 2026-05-05 05:49 | 41.27565 | 16.49662 | 36064 ft | 374 kts | 312° |
| 2026-05-05 05:50 | 41.30313 | 16.43780 | 36065 ft | 373 kts | 312° |
| 2026-05-05 05:50 | 41.33038 | 16.37931 | 36065 ft | 374 kts | 312° |
| 2026-05-05 05:51 | 41.35746 | 16.32111 | 36064 ft | 374 kts | 312° |
| 2026-05-05 05:51 | 41.38479 | 16.26227 | 36065 ft | 374 kts | 311° |
| 2026-05-05 05:52 | 41.41205 | 16.20343 | 36064 ft | 374 kts | 311° |
| 2026-05-05 05:52 | 41.43941 | 16.14427 | 36062 ft | 374 kts | 311° |
| 2026-05-05 05:53 | 41.46665 | 16.08529 | 36064 ft | 374 kts | 311° |
| 2026-05-05 05:53 | 41.49380 | 16.02636 | 36063 ft | 374 kts | 311° |
| 2026-05-05 05:54 | 41.52087 | 15.96746 | 36064 ft | 374 kts | 311° |
| 2026-05-05 05:54 | 41.54797 | 15.90840 | 36063 ft | 375 kts | 312° |
| 2026-05-05 05:55 | 41.57523 | 15.84893 | 36065 ft | 375 kts | 311° |
| 2026-05-05 05:55 | 41.60218 | 15.78996 | 36064 ft | 374 kts | 311° |
| 2026-05-05 05:56 | 41.62934 | 15.73044 | 36065 ft | 374 kts | 311° |
| 2026-05-05 05:56 | 41.65633 | 15.67116 | 36064 ft | 374 kts | 311° |
| 2026-05-05 05:57 | 41.68311 | 15.61224 | 36064 ft | 374 kts | 311° |
| 2026-05-05 05:57 | 41.71016 | 15.55259 | 36064 ft | 375 kts | 312° |
| 2026-05-05 05:58 | 41.73708 | 15.49314 | 36063 ft | 374 kts | 312° |
| 2026-05-05 05:58 | 41.76413 | 15.43331 | 36064 ft | 375 kts | 311° |
| 2026-05-05 05:59 | 41.79085 | 15.37402 | 36063 ft | 374 kts | 312° |
| 2026-05-05 05:59 | 41.81780 | 15.31416 | 36065 ft | 375 kts | 311° |
| 2026-05-05 06:00 | 41.84455 | 15.25460 | 36064 ft | 376 kts | 311° |
| 2026-05-05 06:00 | 41.87162 | 15.19424 | 36064 ft | 375 kts | 311° |
| 2026-05-05 06:01 | 41.89948 | 15.13585 | 36063 ft | 373 kts | 313° |
| 2026-05-05 06:01 | 41.92767 | 15.07752 | 36064 ft | 373 kts | 312° |
| 2026-05-05 06:02 | 41.95589 | 15.01913 | 36063 ft | 375 kts | 311° |
| 2026-05-05 06:02 | 41.98436 | 14.96003 | 36062 ft | 376 kts | 310° |
| 2026-05-05 06:03 | 42.01261 | 14.90121 | 36057 ft | 378 kts | 310° |
| 2026-05-05 06:03 | 42.04108 | 14.84175 | 36054 ft | 380 kts | 309° |
| 2026-05-05 06:04 | 42.06971 | 14.78173 | 36048 ft | 381 kts | 309° |
| 2026-05-05 06:04 | 42.09827 | 14.72181 | 36042 ft | 381 kts | 309° |
| 2026-05-05 06:05 | 42.12674 | 14.66206 | 36041 ft | 381 kts | 309° |
| 2026-05-05 06:05 | 42.15527 | 14.60202 | 36038 ft | 381 kts | 309° |
| 2026-05-05 06:06 | 42.18377 | 14.54193 | 36037 ft | 381 kts | 309° |
| 2026-05-05 06:06 | 42.21218 | 14.48194 | 36039 ft | 381 kts | 309° |
| 2026-05-05 06:07 | 42.24058 | 14.42186 | 36038 ft | 381 kts | 309° |
| 2026-05-05 06:07 | 42.26895 | 14.36169 | 36038 ft | 381 kts | 309° |
| 2026-05-05 06:08 | 42.29707 | 14.30193 | 36038 ft | 381 kts | 309° |
| 2026-05-05 06:08 | 42.32526 | 14.24194 | 36037 ft | 381 kts | 309° |
| 2026-05-05 06:09 | 42.35367 | 14.18133 | 36037 ft | 382 kts | 309° |
| 2026-05-05 06:09 | 42.38190 | 14.12101 | 36039 ft | 382 kts | 309° |
| 2026-05-05 06:10 | 42.41015 | 14.06050 | 36038 ft | 382 kts | 309° |
| 2026-05-05 06:10 | 42.43838 | 13.99993 | 36037 ft | 381 kts | 309° |
| 2026-05-05 06:11 | 42.46666 | 13.93911 | 36037 ft | 382 kts | 309° |
| 2026-05-05 06:11 | 42.49491 | 13.87823 | 36038 ft | 382 kts | 309° |
| 2026-05-05 06:12 | 42.52293 | 13.81776 | 36038 ft | 381 kts | 309° |
| 2026-05-05 06:12 | 42.55123 | 13.75653 | 36038 ft | 382 kts | 309° |
| 2026-05-05 06:13 | 42.57933 | 13.69562 | 36038 ft | 382 kts | 309° |
| 2026-05-05 06:13 | 42.60738 | 13.63469 | 36037 ft | 382 kts | 309° |
| 2026-05-05 06:14 | 42.63547 | 13.57356 | 36038 ft | 382 kts | 309° |
| 2026-05-05 06:14 | 42.66362 | 13.51212 | 36038 ft | 382 kts | 309° |
| 2026-05-05 06:15 | 42.69292 | 13.45247 | 36036 ft | 379 kts | 313° |
| 2026-05-05 06:15 | 42.72477 | 13.39566 | 36037 ft | 378 kts | 314° |
| 2026-05-05 06:16 | 42.75678 | 13.33903 | 36041 ft | 378 kts | 313° |
| 2026-05-05 06:16 | 42.78887 | 13.28224 | 36044 ft | 378 kts | 313° |
| 2026-05-05 06:17 | 42.82058 | 13.22601 | 36049 ft | 378 kts | 313° |
| 2026-05-05 06:17 | 42.85276 | 13.16895 | 36054 ft | 378 kts | 313° |
| 2026-05-05 06:18 | 42.88467 | 13.11221 | 36058 ft | 381 kts | 312° |
| 2026-05-05 06:18 | 42.91705 | 13.05458 | 36061 ft | 383 kts | 311° |
| 2026-05-05 06:19 | 42.94925 | 12.99705 | 36061 ft | 385 kts | 311° |
| 2026-05-05 06:19 | 42.98172 | 12.93892 | 36062 ft | 386 kts | 310° |
| 2026-05-05 06:20 | 43.01416 | 12.88066 | 36063 ft | 385 kts | 310° |
| 2026-05-05 06:20 | 43.04643 | 12.82262 | 36063 ft | 384 kts | 310° |
| 2026-05-05 06:21 | 43.07861 | 12.76462 | 36063 ft | 383 kts | 310° |
| 2026-05-05 06:21 | 43.10977 | 12.70839 | 36065 ft | 383 kts | 310° |
| 2026-05-05 06:22 | 43.14130 | 12.65139 | 36063 ft | 383 kts | 310° |
| 2026-05-05 06:22 | 43.17319 | 12.59364 | 36063 ft | 383 kts | 310° |
| 2026-05-05 06:23 | 43.20540 | 12.53523 | 36063 ft | 383 kts | 310° |
| 2026-05-05 06:23 | 43.23739 | 12.47708 | 36063 ft | 383 kts | 310° |
| 2026-05-05 06:24 | 43.26919 | 12.41917 | 36063 ft | 383 kts | 310° |
| 2026-05-05 06:24 | 43.30090 | 12.36131 | 36063 ft | 383 kts | 310° |
| 2026-05-05 06:25 | 43.33242 | 12.30363 | 36063 ft | 384 kts | 310° |
| 2026-05-05 06:25 | 43.36391 | 12.24595 | 36063 ft | 384 kts | 309° |
| 2026-05-05 06:26 | 43.39543 | 12.18807 | 36063 ft | 384 kts | 310° |
| 2026-05-05 06:26 | 43.42682 | 12.13032 | 36062 ft | 383 kts | 310° |
| 2026-05-05 06:27 | 43.47382 | 12.04366 | 36063 ft | 384 kts | 310° |
| 2026-05-05 06:28 | 43.50527 | 11.98551 | 36063 ft | 384 kts | 309° |
| 2026-05-05 06:28 | 43.53667 | 11.92733 | 36061 ft | 384 kts | 309° |
| 2026-05-05 06:29 | 43.56820 | 11.86881 | 36052 ft | 384 kts | 309° |
| 2026-05-05 06:29 | 43.59994 | 11.80976 | 36037 ft | 384 kts | 310° |
| 2026-05-05 06:30 | 43.63182 | 11.75034 | 36025 ft | 384 kts | 310° |
| 2026-05-05 06:30 | 43.66340 | 11.69138 | 36017 ft | 384 kts | 310° |
| 2026-05-05 06:31 | 43.69513 | 11.63203 | 36013 ft | 384 kts | 309° |
| 2026-05-05 06:31 | 43.72662 | 11.57296 | 36010 ft | 384 kts | 310° |
| 2026-05-05 06:32 | 43.75829 | 11.51348 | 36009 ft | 384 kts | 310° |
| 2026-05-05 06:32 | 43.78989 | 11.45399 | 36008 ft | 384 kts | 309° |
| 2026-05-05 06:33 | 43.82137 | 11.39462 | 36008 ft | 384 kts | 310° |
| 2026-05-05 06:33 | 43.85258 | 11.33563 | 36010 ft | 384 kts | 309° |
| 2026-05-05 06:34 | 43.88384 | 11.27645 | 36009 ft | 384 kts | 309° |
| 2026-05-05 06:34 | 43.91501 | 11.21732 | 36008 ft | 384 kts | 309° |
| 2026-05-05 06:35 | 43.94596 | 11.15847 | 36009 ft | 384 kts | 309° |
| 2026-05-05 06:35 | 43.97667 | 11.09920 | 36006 ft | 386 kts | 306° |
| 2026-05-05 06:36 | 44.00418 | 11.03572 | 35971 ft | 387 kts | 304° |
| 2026-05-05 06:36 | 44.01780 | 11.00369 | 35719 ft | 387 kts | 304° |
| 2026-05-05 06:36 | 44.03131 | 10.97166 | 35468 ft | 386 kts | 303° |
| 2026-05-05 06:36 | 44.04462 | 10.93968 | 35218 ft | 385 kts | 303° |
| 2026-05-05 06:37 | 44.05804 | 10.90731 | 34964 ft | 385 kts | 302° |
| 2026-05-05 06:37 | 44.07124 | 10.87548 | 34716 ft | 385 kts | 302° |
| 2026-05-05 06:37 | 44.08469 | 10.84308 | 34465 ft | 387 kts | 302° |
| 2026-05-05 06:37 | 44.09807 | 10.81081 | 34210 ft | 390 kts | 302° |
| 2026-05-05 06:38 | 44.11101 | 10.77957 | 33876 ft | 392 kts | 301° |
| 2026-05-05 06:38 | 44.12424 | 10.74757 | 33428 ft | 394 kts | 301° |
| 2026-05-05 06:38 | 44.13771 | 10.71495 | 32863 ft | 395 kts | 301° |
| 2026-05-05 06:38 | 44.15149 | 10.68154 | 32220 ft | 396 kts | 301° |
| 2026-05-05 06:39 | 44.16491 | 10.64901 | 31564 ft | 397 kts | 301° |
| 2026-05-05 06:39 | 44.17876 | 10.61540 | 30862 ft | 399 kts | 301° |
| 2026-05-05 06:39 | 44.19240 | 10.58229 | 30177 ft | 400 kts | 301° |
| 2026-05-05 06:39 | 44.20605 | 10.54912 | 29492 ft | 401 kts | 301° |
| 2026-05-05 06:40 | 44.21977 | 10.51572 | 28976 ft | 397 kts | 301° |
| 2026-05-05 06:40 | 44.23328 | 10.48278 | 28546 ft | 392 kts | 301° |
| 2026-05-05 06:40 | 44.24656 | 10.45035 | 28109 ft | 387 kts | 301° |
| 2026-05-05 06:40 | 44.25982 | 10.41793 | 27665 ft | 383 kts | 301° |
| 2026-05-05 06:41 | 44.27261 | 10.38662 | 27234 ft | 379 kts | 301° |
| 2026-05-05 06:41 | 44.28556 | 10.35490 | 26787 ft | 376 kts | 301° |
| 2026-05-05 06:41 | 44.29832 | 10.32361 | 26337 ft | 372 kts | 301° |
| 2026-05-05 06:41 | 44.31044 | 10.29387 | 25906 ft | 370 kts | 301° |
| 2026-05-05 06:42 | 44.32312 | 10.26274 | 25449 ft | 367 kts | 301° |
| 2026-05-05 06:42 | 44.33551 | 10.23226 | 25000 ft | 364 kts | 300° |
| 2026-05-05 06:42 | 44.34790 | 10.20177 | 24544 ft | 361 kts | 300° |
| 2026-05-05 06:42 | 44.36019 | 10.17147 | 24095 ft | 358 kts | 300° |
| 2026-05-05 06:43 | 44.37236 | 10.14142 | 23659 ft | 355 kts | 300° |
| 2026-05-05 06:43 | 44.38460 | 10.11118 | 23210 ft | 353 kts | 300° |
| 2026-05-05 06:43 | 44.39667 | 10.08133 | 22767 ft | 363 kts | 300° |
| 2026-05-05 06:43 | 44.40924 | 10.05026 | 22320 ft | 373 kts | 300° |
| 2026-05-05 06:44 | 44.42210 | 10.01838 | 21865 ft | 373 kts | 300° |
| 2026-05-05 06:44 | 44.43467 | 9.98720 | 21436 ft | 370 kts | 300° |
| 2026-05-05 06:44 | 44.44736 | 9.95566 | 20998 ft | 367 kts | 300° |
| 2026-05-05 06:44 | 44.45982 | 9.92468 | 20564 ft | 364 kts | 300° |
| 2026-05-05 06:45 | 44.47219 | 9.89391 | 20130 ft | 361 kts | 300° |
| 2026-05-05 06:45 | 44.48446 | 9.86336 | 19691 ft | 358 kts | 300° |
| 2026-05-05 06:45 | 44.49666 | 9.83295 | 19249 ft | 356 kts | 300° |
| 2026-05-05 06:45 | 44.50872 | 9.80286 | 18810 ft | 353 kts | 300° |
| 2026-05-05 06:46 | 44.52062 | 9.77312 | 18371 ft | 351 kts | 300° |
| 2026-05-05 06:46 | 44.53243 | 9.74357 | 17930 ft | 348 kts | 300° |
| 2026-05-05 06:46 | 44.54417 | 9.71417 | 17488 ft | 346 kts | 300° |
| 2026-05-05 06:46 | 44.55599 | 9.68454 | 17032 ft | 345 kts | 300° |
| 2026-05-05 06:47 | 44.56765 | 9.65539 | 16496 ft | 346 kts | 300° |
| 2026-05-05 06:47 | 44.57941 | 9.62598 | 15959 ft | 347 kts | 300° |
| 2026-05-05 06:47 | 44.59119 | 9.59650 | 15461 ft | 346 kts | 300° |
| 2026-05-05 06:47 | 44.60284 | 9.56733 | 14986 ft | 345 kts | 300° |
| 2026-05-05 06:48 | 44.61438 | 9.53839 | 14536 ft | 343 kts | 300° |
| 2026-05-05 06:48 | 44.62605 | 9.50909 | 14101 ft | 340 kts | 300° |
| 2026-05-05 06:48 | 44.63741 | 9.48057 | 13701 ft | 337 kts | 300° |
| 2026-05-05 06:48 | 44.64879 | 9.45194 | 13295 ft | 335 kts | 300° |
| 2026-05-05 06:49 | 44.66016 | 9.42332 | 12883 ft | 332 kts | 300° |
| 2026-05-05 06:49 | 44.67136 | 9.39509 | 12473 ft | 330 kts | 300° |
| 2026-05-05 06:49 | 44.68245 | 9.36715 | 12066 ft | 329 kts | 300° |
| 2026-05-05 06:49 | 44.69350 | 9.33925 | 11659 ft | 327 kts | 299° |
| 2026-05-05 06:50 | 44.70461 | 9.31117 | 11246 ft | 326 kts | 299° |
| 2026-05-05 06:50 | 44.71561 | 9.28331 | 10839 ft | 324 kts | 299° |
| 2026-05-05 06:50 | 44.72629 | 9.25624 | 10661 ft | 314 kts | 300° |
| 2026-05-05 06:50 | 44.73676 | 9.22970 | 10567 ft | 302 kts | 300° |
| 2026-05-05 06:51 | 44.74674 | 9.20436 | 10473 ft | 291 kts | 300° |
| 2026-05-05 06:51 | 44.75720 | 9.18057 | 10379 ft | 279 kts | 308° |
| 2026-05-05 06:51 | 44.77038 | 9.16104 | 10166 ft | 275 kts | 320° |
| 2026-05-05 06:51 | 44.78566 | 9.14483 | 9734 ft | 278 kts | 324° |
| 2026-05-05 06:52 | 44.80196 | 9.12880 | 9259 ft | 281 kts | 325° |
| 2026-05-05 06:52 | 44.81808 | 9.11302 | 8933 ft | 279 kts | 326° |
| 2026-05-05 06:52 | 44.83393 | 9.09738 | 8622 ft | 277 kts | 326° |
| 2026-05-05 06:52 | 44.84958 | 9.08188 | 8210 ft | 279 kts | 326° |
| 2026-05-05 06:53 | 44.86550 | 9.06604 | 7840 ft | 279 kts | 326° |
| 2026-05-05 06:53 | 44.88134 | 9.05025 | 7492 ft | 278 kts | 326° |
| 2026-05-05 06:53 | 44.89703 | 9.03458 | 7156 ft | 277 kts | 326° |
| 2026-05-05 06:53 | 44.91269 | 9.01892 | 6825 ft | 276 kts | 326° |
| 2026-05-05 06:54 | 44.92822 | 9.00338 | 6500 ft | 275 kts | 326° |
| 2026-05-05 06:54 | 44.94378 | 8.98779 | 6174 ft | 274 kts | 326° |
| 2026-05-05 06:54 | 44.95934 | 8.97220 | 5850 ft | 273 kts | 326° |
| 2026-05-05 06:54 | 44.97481 | 8.95666 | 5526 ft | 272 kts | 326° |
| 2026-05-05 06:55 | 44.99008 | 8.94135 | 5261 ft | 269 kts | 326° |
| 2026-05-05 06:55 | 45.00489 | 8.92646 | 5146 ft | 260 kts | 326° |
| 2026-05-05 06:55 | 45.01933 | 8.91193 | 5078 ft | 249 kts | 325° |
| 2026-05-05 06:55 | 45.03307 | 8.89809 | 5005 ft | 245 kts | 326° |
| 2026-05-05 06:56 | 45.04864 | 8.88720 | 4921 ft | 252 kts | 345° |
| 2026-05-05 06:56 | 45.06538 | 8.88201 | 4843 ft | 242 kts | 348° |
| 2026-05-05 06:56 | 45.08179 | 8.87765 | 4735 ft | 233 kts | 349° |
| 2026-05-05 06:56 | 45.09733 | 8.87351 | 4629 ft | 225 kts | 348° |
| 2026-05-05 06:57 | 45.11251 | 8.86937 | 4527 ft | 222 kts | 348° |
| 2026-05-05 06:57 | 45.12786 | 8.86513 | 4426 ft | 223 kts | 348° |
| 2026-05-05 06:57 | 45.14297 | 8.86114 | 4331 ft | 223 kts | 349° |
| 2026-05-05 06:57 | 45.15826 | 8.85718 | 4231 ft | 222 kts | 349° |
| 2026-05-05 06:58 | 45.17342 | 8.85318 | 4131 ft | 222 kts | 348° |
| 2026-05-05 06:58 | 45.18854 | 8.84914 | 4047 ft | 221 kts | 348° |
| 2026-05-05 06:58 | 45.20365 | 8.84535 | 3974 ft | 221 kts | 352° |
| 2026-05-05 06:58 | 45.21905 | 8.84280 | 3898 ft | 219 kts | 353° |
| 2026-05-05 06:59 | 45.23385 | 8.84030 | 3814 ft | 211 kts | 352° |
| 2026-05-05 06:59 | 45.24813 | 8.83755 | 3729 ft | 203 kts | 351° |
| 2026-05-05 06:59 | 45.26211 | 8.83456 | 3651 ft | 201 kts | 350° |
| 2026-05-05 06:59 | 45.27586 | 8.83136 | 3599 ft | 201 kts | 349° |
| 2026-05-05 07:00 | 45.28946 | 8.82799 | 3559 ft | 201 kts | 349° |
| 2026-05-05 07:00 | 45.30328 | 8.82441 | 3518 ft | 200 kts | 349° |
| 2026-05-05 07:00 | 45.31681 | 8.82077 | 3477 ft | 200 kts | 348° |
| 2026-05-05 07:00 | 45.33054 | 8.81700 | 3436 ft | 200 kts | 348° |
| 2026-05-05 07:01 | 45.34414 | 8.81321 | 3400 ft | 200 kts | 348° |
| 2026-05-05 07:01 | 45.35778 | 8.80937 | 3359 ft | 200 kts | 348° |
| 2026-05-05 07:01 | 45.37136 | 8.80553 | 3317 ft | 199 kts | 348° |
| 2026-05-05 07:01 | 45.38454 | 8.80181 | 3264 ft | 191 kts | 348° |
| 2026-05-05 07:02 | 45.39754 | 8.79815 | 3224 ft | 190 kts | 348° |
| 2026-05-05 07:02 | 45.41043 | 8.79452 | 3186 ft | 190 kts | 348° |
| 2026-05-05 07:02 | 45.42329 | 8.79091 | 3148 ft | 190 kts | 348° |
| 2026-05-05 07:02 | 45.43565 | 8.78746 | 3114 ft | 190 kts | 348° |
| 2026-05-05 07:03 | 45.44844 | 8.78389 | 3076 ft | 190 kts | 348° |
| 2026-05-05 07:03 | 45.46125 | 8.78033 | 3038 ft | 189 kts | 348° |
| 2026-05-05 07:03 | 45.47400 | 8.77680 | 3039 ft | 180 kts | 348° |
| 2026-05-05 07:03 | 45.48620 | 8.77342 | 3067 ft | 175 kts | 348° |
| 2026-05-05 07:04 | 45.49794 | 8.77017 | 3021 ft | 174 kts | 348° |
| 2026-05-05 07:04 | 45.50986 | 8.76686 | 2811 ft | 174 kts | 348° |
| 2026-05-05 07:04 | 45.52163 | 8.76360 | 2581 ft | 172 kts | 348° |
| 2026-05-05 07:04 | 45.53347 | 8.76033 | 2349 ft | 172 kts | 348° |
| 2026-05-05 07:05 | 45.54506 | 8.75712 | 2122 ft | 170 kts | 348° |
| 2026-05-05 07:05 | 45.55620 | 8.75405 | 1916 ft | 159 kts | 348° |
| 2026-05-05 07:05 | 45.56675 | 8.75113 | 1701 ft | 147 kts | 348° |
| 2026-05-05 07:05 | 45.57637 | 8.74847 | 1487 ft | 136 kts | 348° |
| 2026-05-05 07:06 | 45.58557 | 8.74592 | 1315 ft | 134 kts | 348° |
| 2026-05-05 07:06 | 45.59465 | 8.74341 | 1149 ft | 133 kts | 348° |
| 2026-05-05 07:06 | 45.60377 | 8.74084 | 968 ft | 133 kts | 348° |
| 2026-05-05 07:06 | 45.61274 | 8.73834 | 804 ft | 133 kts | 348° |
| 2026-05-05 07:07 | 45.62167 | 8.73589 | 714 ft | 121 kts | 349° |
| 2026-05-05 07:07 | 45.62857 | 8.73403 | 727 ft | 77 kts | 349° |
| 2026-05-05 07:07 | 45.63234 | 8.73299 | 735 ft | 40 kts | 349° |
| 2026-05-05 07:07 | 45.63463 | 8.73236 | 739 ft | 27 kts | 349° |
| 2026-05-05 07:08 | 45.63617 | 8.73170 | 743 ft | 20 kts | 334° |
| 2026-05-05 07:08 | 45.63731 | 8.73064 | 746 ft | 18 kts | 318° |
| 2026-05-05 07:08 | 45.63810 | 8.72939 | 748 ft | 16 kts | 306° |
| 2026-05-05 07:08 | 45.63871 | 8.72813 | 750 ft | 14 kts | 303° |
| 2026-05-05 07:09 | 45.63923 | 8.72697 | 752 ft | 13 kts | 303° |
| 2026-05-05 07:09 | 45.63955 | 8.72586 | 753 ft | 11 kts | 274° |
| 2026-05-05 07:09 | 45.63943 | 8.72451 | 754 ft | 16 kts | 258° |
| 2026-05-05 07:09 | 45.63922 | 8.72279 | 755 ft | 17 kts | 266° |
| 2026-05-05 07:10 | 45.63916 | 8.72112 | 756 ft | 15 kts | 267° |
| 2026-05-05 07:10 | 45.63906 | 8.71964 | 758 ft | 14 kts | 259° |
| 2026-05-05 07:10 | 45.63860 | 8.71844 | 758 ft | 14 kts | 209° |
| 2026-05-05 07:10 | 45.63713 | 8.71852 | 754 ft | 30 kts | 170° |
| 2026-05-05 07:11 | 45.63505 | 8.71909 | 749 ft | 30 kts | 170° |
| 2026-05-05 07:11 | 45.63302 | 8.71963 | 744 ft | 28 kts | 169° |
| 2026-05-05 07:11 | 45.63110 | 8.72016 | 740 ft | 27 kts | 169° |
| 2026-05-05 07:11 | 45.62926 | 8.72068 | 736 ft | 26 kts | 169° |
| 2026-05-05 07:12 | 45.62756 | 8.72114 | 733 ft | 19 kts | 169° |
| 2026-05-05 07:12 | 45.62679 | 8.72049 | 732 ft | 14 kts | 259° |
| 2026-05-05 07:12 | 45.62661 | 8.71913 | 733 ft | 12 kts | 260° |
| 2026-05-05 07:12 | 45.62626 | 8.71844 | 733 ft | 8 kts | 184° |
| 2026-05-05 07:13 | 45.62584 | 8.71795 | 733 ft | 8 kts | 234° |
| 2026-05-05 07:13 | 45.62553 | 8.71734 | 732 ft | 1 kts | 233° |
| 2026-05-05 07:13 | 45.62551 | 8.71730 | 732 ft | 0 kts | 233° |